Time;durP1;ratioP1;P1;durP2;ratioP2;P2;SDS_P1;SDS_P2;PMS_P1;PMS_P2;Temp;Humidity;BMP_temperature;BMP_pressure;BME280_temperature;BME280_humidity;BME280_pressure;Samples;Min_cycle;Max_cycle;Signal;HPM_P1;HPM_P2
2024/01/30 00:00:21;;;;;;;;;;;16.80;62.70;;;;;;6248712;23;20041;-83
2024/01/30 00:02:47;;;;;;;;;;;16.90;62.40;;;;;;6248074;22;20018;-83
2024/01/30 00:05:13;;;;;;;;;;;18.20;63.40;;;;;;6248449;23;19936;-82
2024/01/30 00:07:39;;;;;;;;;;;16.90;62.20;;;;;;6248635;23;20276;-83
2024/01/30 00:10:06;;;;;;;;;;;16.80;62.80;;;;;;6248384;23;19983;-82
2024/01/30 00:12:31;;;;;;;;;;;16.70;62.10;;;;;;6248047;23;19973;-82
2024/01/30 00:14:58;;;;;;;;;;;16.70;62.70;;;;;;6248667;23;19904;-83
2024/01/30 00:17:25;;;;;;;;;;;16.70;62.60;;;;;;6248301;22;19935;-82
2024/01/30 00:19:51;;;;;;;;;;;16.70;62.60;;;;;;6248262;23;19965;-83
2024/01/30 00:22:17;;;;;;;;;;;16.80;63.20;;;;;;6248221;23;19939;-83
2024/01/30 00:24:42;;;;;;;;;;;16.80;62.80;;;;;;6249177;23;19913;-82
2024/01/30 00:27:08;;;;;;;;;;;15.00;61.80;;;;;;6248214;23;19910;-82
2024/01/30 00:29:34;;;;;;;;;;;16.80;62.50;;;;;;6248431;23;19994;-83
2024/01/30 00:32:00;;;;;;;;;;;16.70;62.50;;;;;;6248208;23;20345;-83
2024/01/30 00:34:26;;;;;;;;;;;16.70;62.90;;;;;;6247802;23;19910;-82
2024/01/30 00:36:51;;;;;;;;;;;16.70;62.70;;;;;;6247867;23;19966;-82
2024/01/30 00:39:19;;;;;;;;;;;16.70;62.90;;;;;;6247904;23;19903;-83
2024/01/30 00:41:45;;;;;;;;;;;16.70;62.40;;;;;;6247857;23;19904;-82
2024/01/30 00:44:10;;;;;;;;;;;16.80;62.60;;;;;;6247946;23;19965;-84
2024/01/30 00:46:36;;;;;;;;;;;16.80;62.90;;;;;;6247692;23;19912;-83
2024/01/30 00:49:01;;;;;;;;;;;16.80;62.70;;;;;;6248130;23;20327;-82
2024/01/30 00:51:29;;;;;;;;;;;16.70;63.20;;;;;;6248008;23;19904;-83
2024/01/30 00:53:55;;;;;;;;;;;16.80;62.70;;;;;;6248434;23;20239;-82
2024/01/30 00:56:20;;;;;;;;;;;16.80;62.50;;;;;;6247748;23;19914;-82
2024/01/30 00:58:46;;;;;;;;;;;16.80;62.80;;;;;;6248082;23;20025;-81
2024/01/30 01:01:12;;;;;;;;;;;16.70;62.60;;;;;;6247681;23;19903;-81
2024/01/30 01:03:37;;;;;;;;;;;16.80;62.60;;;;;;6247411;22;19965;-82
2024/01/30 01:06:03;;;;;;;;;;;16.80;62.50;;;;;;6247729;23;19911;-82
2024/01/30 01:08:28;;;;;;;;;;;16.80;62.20;;;;;;6246421;23;19904;-83
2024/01/30 01:10:54;;;;;;;;;;;16.80;62.90;;;;;;6246024;23;20212;-82
2024/01/30 01:13:19;;;;;;;;;;;16.80;62.60;;;;;;6246098;23;19904;-83
2024/01/30 01:15:45;;;;;;;;;;;16.80;62.60;;;;;;6246076;23;20310;-82
2024/01/30 01:18:11;;;;;;;;;;;16.70;62.60;;;;;;6246426;23;19914;-83
2024/01/30 01:20:36;;;;;;;;;;;16.80;62.80;;;;;;6246111;23;19903;-83
2024/01/30 01:23:01;;;;;;;;;;;16.80;62.70;;;;;;6246568;23;19904;-82
2024/01/30 01:25:27;;;;;;;;;;;16.80;62.80;;;;;;6246016;23;19957;-82
2024/01/30 01:27:52;;;;;;;;;;;16.80;62.80;;;;;;6246028;23;19993;-82
2024/01/30 01:30:21;;;;;;;;;;;16.80;62.60;;;;;;6246040;23;19910;-82
2024/01/30 01:32:54;;;;;;;;;;;16.80;62.70;;;;;;6245931;23;19950;-83
2024/01/30 01:35:24;;;;;;;;;;;16.80;62.80;;;;;;6256409;23;19983;-82
2024/01/30 01:37:54;;;;;;;;;;;16.70;58.60;;;;;;6246323;23;19904;-82
2024/01/30 01:40:23;;;;;;;;;;;16.80;62.70;;;;;;6245940;23;19987;-82
2024/01/30 01:42:52;;;;;;;;;;;16.70;58.70;;;;;;6245811;23;20247;-82
2024/01/30 01:45:19;;;;;;;;;;;16.80;62.70;;;;;;6245848;22;19912;-82
2024/01/30 01:47:47;;;;;;;;;;;16.80;62.50;;;;;;6245794;23;19904;-82
2024/01/30 01:50:18;;;;;;;;;;;16.80;62.10;;;;;;6246484;23;20222;-82
2024/01/30 01:52:44;;;;;;;;;;;16.90;58.70;;;;;;6246227;23;20007;-83
2024/01/30 01:55:11;;;;;;;;;;;16.70;62.90;;;;;;6245896;23;19979;-83
2024/01/30 01:57:36;;;;;;;;;;;16.80;62.60;;;;;;6244175;23;20319;-82
2024/01/30 02:00:03;;;;;;;;;;;16.70;62.70;;;;;;6245850;23;19903;-82
2024/01/30 02:02:30;;;;;;;;;;;16.80;62.60;;;;;;6245623;22;19915;-82
2024/01/30 02:04:57;;;;;;;;;;;16.70;62.90;;;;;;6245593;23;20298;-83
2024/01/30 02:07:22;;;;;;;;;;;17.10;62.90;;;;;;6245807;23;19903;-82
2024/01/30 02:09:47;;;;;;;;;;;16.70;62.90;;;;;;6245633;23;19998;-82
2024/01/30 02:12:13;;;;;;;;;;;16.70;62.60;;;;;;6245568;23;19911;-82
2024/01/30 02:14:48;;;;;;;;;;;16.70;62.40;;;;;;6245588;23;19908;-82
2024/01/30 02:17:14;;;;;;;;;;;16.70;58.70;;;;;;6246237;23;20271;-82
2024/01/30 02:19:39;;;;;;;;;;;16.80;62.70;;;;;;6246146;23;19904;-82
2024/01/30 02:22:05;;;;;;;;;;;16.70;62.80;;;;;;6245683;23;19923;-82
2024/01/30 02:24:31;;;;;;;;;;;16.70;62.80;;;;;;6245658;23;20315;-82
2024/01/30 02:26:56;;;;;;;;;;;16.70;63.00;;;;;;6245483;23;19907;-82
2024/01/30 02:29:22;;;;;;;;;;;16.80;62.60;;;;;;6245434;23;20212;-83
2024/01/30 02:31:47;;;;;;;;;;;16.70;62.70;;;;;;6245481;23;19939;-82
2024/01/30 02:34:13;;;;;;;;;;;16.70;62.90;;;;;;6245438;23;19910;-84
2024/01/30 02:36:42;;;;;;;;;;;16.70;62.80;;;;;;6245631;23;19904;-85
2024/01/30 02:39:07;;;;;;;;;;;16.70;63.30;;;;;;6245750;23;20434;-84
2024/01/30 02:41:33;;;;;;;;;;;16.70;63.00;;;;;;6246229;23;19903;-84
2024/01/30 02:43:59;;;;;;;;;;;16.70;63.30;;;;;;6245324;23;20233;-83
2024/01/30 02:46:24;;;;;;;;;;;16.60;63.20;;;;;;6245816;23;19911;-82
2024/01/30 02:48:50;;;;;;;;;;;16.70;63.10;;;;;;6245583;23;20239;-86
2024/01/30 02:51:15;;;;;;;;;;;16.70;63.20;;;;;;6245402;23;19911;-83
2024/01/30 02:53:41;;;;;;;;;;;16.70;63.20;;;;;;6245517;23;19918;-82
2024/01/30 02:56:09;;;;;;;;;;;16.70;63.40;;;;;;6245205;23;19911;-82
2024/01/30 02:58:35;;;;;;;;;;;16.70;62.60;;;;;;6255526;23;20287;-82
2024/01/30 03:01:01;;;;;;;;;;;16.70;63.70;;;;;;6245983;23;19912;-81
2024/01/30 03:03:26;;;;;;;;;;;16.80;62.90;;;;;;6244837;22;19991;-82
2024/01/30 03:05:52;;;;;;;;;;;16.70;63.50;;;;;;6245009;23;19998;-83
2024/01/30 03:08:18;;;;;;;;;;;16.70;63.40;;;;;;6245287;23;19903;-82
2024/01/30 03:10:44;;;;;;;;;;;16.70;63.30;;;;;;6245488;23;19955;-83
2024/01/30 03:13:09;;;;;;;;;;;16.70;63.10;;;;;;6245644;23;19904;-83
2024/01/30 03:15:35;;;;;;;;;;;16.70;63.60;;;;;;6245718;23;19910;-83
2024/01/30 03:18:01;;;;;;;;;;;17.10;63.50;;;;;;6245722;23;19918;-83
2024/01/30 03:20:27;;;;;;;;;;;16.80;63.60;;;;;;6245295;23;19904;-83
2024/01/30 03:22:53;;;;;;;;;;;17.40;63.80;;;;;;6245271;23;19904;-83
2024/01/30 03:25:19;;;;;;;;;;;16.70;63.70;;;;;;6245498;23;19917;-83
2024/01/30 03:27:45;;;;;;;;;;;16.70;63.50;;;;;;6245629;23;20246;-82
2024/01/30 03:30:12;;;;;;;;;;;16.80;63.40;;;;;;6245138;23;19953;-83
2024/01/30 03:32:37;;;;;;;;;;;16.70;63.30;;;;;;6245314;23;19908;-83
2024/01/30 03:35:03;;;;;;;;;;;16.70;63.60;;;;;;6244767;23;20260;-83
2024/01/30 03:37:28;;;;;;;;;;;16.70;63.00;;;;;;6245015;23;19916;-83
2024/01/30 03:39:54;;;;;;;;;;;16.70;63.30;;;;;;6245023;23;19911;-83
2024/01/30 03:42:19;;;;;;;;;;;16.80;63.30;;;;;;6244808;23;19910;-83
2024/01/30 03:44:45;;;;;;;;;;;16.70;63.40;;;;;;6245455;23;19929;-83
2024/01/30 03:47:10;;;;;;;;;;;16.70;63.40;;;;;;6244772;23;19919;-83
2024/01/30 03:49:36;;;;;;;;;;;17.20;63.70;;;;;;6245079;23;19957;-83
2024/01/30 03:52:01;;;;;;;;;;;16.70;63.20;;;;;;6244864;23;19904;-82
2024/01/30 03:54:27;;;;;;;;;;;16.60;63.10;;;;;;6244896;23;19904;-83
2024/01/30 03:56:52;;;;;;;;;;;16.70;63.50;;;;;;6245330;23;19904;-82
2024/01/30 03:59:22;;;;;;;;;;;16.70;63.30;;;;;;6244864;23;19903;-82
2024/01/30 04:01:47;;;;;;;;;;;16.70;63.00;;;;;;6244500;22;20067;-82
2024/01/30 04:04:13;;;;;;;;;;;16.70;63.40;;;;;;6244822;23;19908;-82
2024/01/30 04:06:38;;;;;;;;;;;16.60;63.20;;;;;;6244511;23;19912;-83
2024/01/30 04:09:04;;;;;;;;;;;16.70;63.30;;;;;;6244612;23;19914;-82
2024/01/30 04:11:29;;;;;;;;;;;16.70;63.20;;;;;;6244569;23;20345;-82
2024/01/30 04:13:55;;;;;;;;;;;16.70;63.20;;;;;;6245284;23;19910;-82
2024/01/30 04:16:21;;;;;;;;;;;16.70;63.30;;;;;;6244575;23;19907;-82
2024/01/30 04:18:47;;;;;;;;;;;16.60;63.50;;;;;;6244920;23;19903;-82
2024/01/30 04:21:13;;;;;;;;;;;16.70;63.30;;;;;;6244706;23;19904;-82
2024/01/30 04:23:39;;;;;;;;;;;16.60;63.20;;;;;;6244758;23;19903;-82
2024/01/30 04:26:04;;;;;;;;;;;16.70;63.00;;;;;;6244538;23;20289;-82
2024/01/30 04:28:30;;;;;;;;;;;16.80;63.40;;;;;;6244553;23;20134;-82
2024/01/30 04:30:56;;;;;;;;;;;16.70;63.30;;;;;;6244655;23;19946;-82
2024/01/30 04:33:21;;;;;;;;;;;16.60;63.20;;;;;;6244364;23;19907;-82
2024/01/30 04:35:46;;;;;;;;;;;16.70;63.40;;;;;;6244423;23;19982;-83
2024/01/30 04:38:12;;;;;;;;;;;16.70;63.60;;;;;;6244578;23;19931;-83
2024/01/30 04:40:37;;;;;;;;;;;16.70;63.70;;;;;;6245012;23;20266;-82
2024/01/30 04:43:03;;;;;;;;;;;16.70;63.50;;;;;;6246011;23;20389;-83
2024/01/30 04:45:28;;;;;;;;;;;16.70;62.80;;;;;;6247129;22;19908;-83
2024/01/30 04:47:54;;;;;;;;;;;16.70;63.50;;;;;;6246350;23;19904;-82
2024/01/30 04:50:19;;;;;;;;;;;16.70;63.50;;;;;;6246409;23;19904;-82
2024/01/30 04:52:45;;;;;;;;;;;16.70;63.60;;;;;;6246504;23;19949;-82
2024/01/30 04:55:10;;;;;;;;;;;16.90;63.70;;;;;;6246538;23;19953;-82
2024/01/30 04:57:36;;;;;;;;;;;16.80;63.50;;;;;;6244643;23;19904;-82
2024/01/30 05:00:02;;;;;;;;;;;16.70;63.90;;;;;;6246348;23;19949;-81
2024/01/30 05:02:28;;;;;;;;;;;16.70;63.40;;;;;;6246062;22;19942;-81
2024/01/30 05:04:53;;;;;;;;;;;16.70;63.70;;;;;;6246417;23;19915;-80
2024/01/30 05:07:19;;;;;;;;;;;16.70;63.90;;;;;;6246215;23;19958;-81
2024/01/30 05:09:44;;;;;;;;;;;16.80;64.20;;;;;;6246768;23;19904;-82
2024/01/30 05:12:09;;;;;;;;;;;16.80;64.10;;;;;;6246187;23;19911;-82
2024/01/30 05:14:35;;;;;;;;;;;16.70;64.10;;;;;;6246121;23;19937;-82
2024/01/30 05:17:02;;;;;;;;;;;16.90;64.40;;;;;;6246097;23;19914;-82
2024/01/30 05:19:28;;;;;;;;;;;16.70;64.00;;;;;;6246299;23;19911;-83
2024/01/30 05:21:53;;;;;;;;;;;16.70;64.20;;;;;;6247071;23;19904;-82
2024/01/30 05:24:19;;;;;;;;;;;16.80;64.20;;;;;;6246299;23;19904;-82
2024/01/30 05:26:44;;;;;;;;;;;16.70;64.30;;;;;;6245996;23;19963;-82
2024/01/30 05:29:10;;;;;;;;;;;16.70;64.40;;;;;;6246299;23;19905;-83
2024/01/30 05:31:35;;;;;;;;;;;16.70;64.40;;;;;;6246051;23;19911;-82
2024/01/30 05:34:01;;;;;;;;;;;16.80;64.20;;;;;;6245974;23;19954;-82
2024/01/30 05:36:27;;;;;;;;;;;16.80;64.70;;;;;;6245944;23;19911;-82
2024/01/30 05:38:52;;;;;;;;;;;16.80;64.50;;;;;;6246494;23;19904;-82
2024/01/30 05:41:18;;;;;;;;;;;16.80;65.20;;;;;;6245869;23;19908;-82
2024/01/30 05:43:43;;;;;;;;;;;16.90;64.50;;;;;;6245700;23;19904;-82
2024/01/30 05:46:09;;;;;;;;;;;16.70;64.20;;;;;;6246435;23;19916;-82
2024/01/30 05:48:35;;;;;;;;;;;16.80;64.80;;;;;;6245981;23;20385;-82
2024/01/30 05:51:01;;;;;;;;;;;16.80;64.50;;;;;;6246720;23;19907;-82
2024/01/30 05:53:27;;;;;;;;;;;16.80;64.50;;;;;;6245963;23;19903;-84
2024/01/30 05:55:53;;;;;;;;;;;16.80;64.60;;;;;;6246429;23;20243;-84
2024/01/30 05:58:19;;;;;;;;;;;16.80;64.50;;;;;;6246143;23;19986;-84
2024/01/30 06:00:45;;;;;;;;;;;16.80;64.50;;;;;;6246469;23;19969;-83
2024/01/30 06:03:11;;;;;;;;;;;16.80;63.90;;;;;;6246003;22;19939;-84
2024/01/30 06:05:37;;;;;;;;;;;17.00;64.30;;;;;;6246314;23;19946;-84
2024/01/30 06:08:03;;;;;;;;;;;16.80;64.50;;;;;;6247120;23;19990;-85
2024/01/30 06:10:29;;;;;;;;;;;16.80;63.70;;;;;;6246678;22;19905;-86
2024/01/30 06:12:55;;;;;;;;;;;16.80;64.60;;;;;;6246486;23;20238;-86
2024/01/30 06:15:21;;;;;;;;;;;16.80;64.30;;;;;;6246677;23;19908;-86
2024/01/30 06:17:46;;;;;;;;;;;16.80;64.50;;;;;;6246746;23;19903;-86
2024/01/30 06:20:12;;;;;;;;;;;16.80;64.40;;;;;;6246437;23;20369;-82
2024/01/30 06:22:38;;;;;;;;;;;16.70;64.50;;;;;;6246274;23;19911;-84
2024/01/30 06:25:04;;;;;;;;;;;16.80;64.70;;;;;;6245760;23;19911;-79
2024/01/30 06:27:30;;;;;;;;;;;16.80;64.20;;;;;;6246189;23;19924;-81
2024/01/30 06:29:56;;;;;;;;;;;16.80;64.50;;;;;;6246190;23;20356;-80
2024/01/30 06:32:22;;;;;;;;;;;16.80;64.60;;;;;;6245975;23;19911;-82
2024/01/30 06:34:48;;;;;;;;;;;16.80;64.60;;;;;;6246343;23;20216;-81
2024/01/30 06:37:14;;;;;;;;;;;16.70;64.50;;;;;;6245732;23;19904;-83
2024/01/30 06:39:40;;;;;;;;;;;16.80;64.40;;;;;;6246064;23;19903;-81
2024/01/30 06:42:06;;;;;;;;;;;16.80;64.30;;;;;;6245872;23;19982;-81
2024/01/30 06:44:31;;;;;;;;;;;16.80;64.50;;;;;;6245632;23;19908;-83
2024/01/30 06:46:57;;;;;;;;;;;16.80;64.40;;;;;;6245925;23;20046;-80
2024/01/30 06:49:23;;;;;;;;;;;16.90;64.60;;;;;;6245588;23;19974;-78
2024/01/30 06:51:49;;;;;;;;;;;16.80;64.40;;;;;;6245526;23;19992;-82
2024/01/30 06:54:15;;;;;;;;;;;16.80;64.60;;;;;;6245828;23;19982;-78
2024/01/30 06:56:41;;;;;;;;;;;16.80;64.10;;;;;;6245514;23;19908;-81
2024/01/30 06:59:08;;;;;;;;;;;16.80;64.50;;;;;;6245815;23;19904;-79
2024/01/30 07:01:34;;;;;;;;;;;16.80;64.30;;;;;;6245304;23;20372;-82
2024/01/30 07:03:59;;;;;;;;;;;16.80;64.60;;;;;;6245638;22;19994;-81
2024/01/30 07:06:25;;;;;;;;;;;16.70;64.30;;;;;;6244896;23;19916;-80
2024/01/30 07:08:50;;;;;;;;;;;16.70;64.70;;;;;;6245131;23;20226;-79
2024/01/30 07:11:19;;;;;;;;;;;16.70;64.50;;;;;;6245102;23;19986;-77
2024/01/30 07:13:45;;;;;;;;;;;16.80;60.10;;;;;;6245214;23;19903;-80
2024/01/30 07:16:11;;;;;;;;;;;17.00;64.60;;;;;;6245709;23;19931;-80
2024/01/30 07:18:36;;;;;;;;;;;16.60;64.40;;;;;;6243255;23;19942;-80
2024/01/30 07:21:02;;;;;;;;;;;16.80;64.00;;;;;;6245261;23;19903;-80
2024/01/30 07:23:29;;;;;;;;;;;16.70;64.00;;;;;;6244529;23;20242;-80
2024/01/30 07:25:55;;;;;;;;;;;17.10;64.70;;;;;;6245316;23;20319;-81
2024/01/30 07:28:21;;;;;;;;;;;16.80;64.60;;;;;;6245340;23;19979;-81
2024/01/30 07:30:48;;;;;;;;;;;16.80;64.90;;;;;;6245879;23;19942;-80
2024/01/30 07:33:13;;;;;;;;;;;16.80;64.80;;;;;;6246075;23;19923;-78
2024/01/30 07:35:39;;;;;;;;;;;16.80;64.80;;;;;;6245046;23;20364;-79
2024/01/30 07:38:04;;;;;;;;;;;17.10;64.90;;;;;;6244896;23;19912;-76
2024/01/30 07:40:30;;;;;;;;;;;16.90;64.90;;;;;;6245008;23;19986;-77
2024/01/30 07:42:55;;;;;;;;;;;16.80;64.70;;;;;;6244716;23;20281;-77
2024/01/30 07:45:22;;;;;;;;;;;16.70;65.00;;;;;;6244701;23;19922;-79
2024/01/30 07:47:51;;;;;;;;;;;16.80;64.60;;;;;;6244949;23;19912;-76
2024/01/30 07:50:16;;;;;;;;;;;16.80;60.80;;;;;;6244874;23;19910;-74
2024/01/30 07:52:45;;;;;;;;;;;16.80;64.80;;;;;;6244946;23;19903;-75
2024/01/30 07:55:10;;;;;;;;;;;16.80;65.00;;;;;;6244701;23;19904;-73
2024/01/30 07:57:38;;;;;;;;;;;16.80;64.70;;;;;;6244785;23;20329;-75
2024/01/30 08:00:05;;;;;;;;;;;16.90;65.30;;;;;;6245379;23;19915;-73
2024/01/30 08:02:34;;;;;;;;;;;16.90;64.60;;;;;;6243966;22;19919;-76
2024/01/30 08:04:59;;;;;;;;;;;16.80;60.60;;;;;;6245257;23;20298;-78
2024/01/30 08:07:25;;;;;;;;;;;17.00;64.90;;;;;;6244675;23;19908;-75
2024/01/30 08:09:50;;;;;;;;;;;16.80;64.90;;;;;;6244697;23;19986;-77
2024/01/30 08:12:16;;;;;;;;;;;17.20;64.90;;;;;;6245535;23;19911;-81
2024/01/30 08:14:41;;;;;;;;;;;16.90;64.90;;;;;;6245407;23;19994;-76
2024/01/30 08:17:07;;;;;;;;;;;16.90;64.90;;;;;;6245745;23;20319;-76
2024/01/30 08:19:33;;;;;;;;;;;16.80;64.50;;;;;;6247227;23;19942;-75
2024/01/30 08:21:58;;;;;;;;;;;17.00;64.70;;;;;;6246685;23;19950;-76
2024/01/30 08:24:24;;;;;;;;;;;16.90;64.50;;;;;;6246691;23;19965;-76
2024/01/30 08:26:49;;;;;;;;;;;16.90;64.70;;;;;;6246654;23;19954;-80
2024/01/30 08:29:15;;;;;;;;;;;16.90;64.60;;;;;;6247305;23;19904;-77
2024/01/30 08:31:40;;;;;;;;;;;16.90;65.00;;;;;;6247434;23;20300;-77
2024/01/30 08:34:06;;;;;;;;;;;17.00;64.40;;;;;;6246658;23;19904;-77
2024/01/30 08:36:31;;;;;;;;;;;16.90;64.40;;;;;;6246602;23;20037;-77
2024/01/30 08:38:57;;;;;;;;;;;16.90;64.50;;;;;;6246617;23;19958;-77
2024/01/30 08:41:22;;;;;;;;;;;16.90;64.50;;;;;;6246680;23;19983;-77
2024/01/30 08:43:48;;;;;;;;;;;16.90;64.50;;;;;;6246573;23;19942;-77
2024/01/30 08:46:17;;;;;;;;;;;16.90;64.40;;;;;;6246549;23;19915;-79
2024/01/30 08:48:42;;;;;;;;;;;16.90;64.70;;;;;;6246407;23;19911;-80
2024/01/30 08:51:08;;;;;;;;;;;16.90;64.70;;;;;;6246735;23;19904;-78
2024/01/30 08:53:34;;;;;;;;;;;16.80;64.20;;;;;;6246534;23;20366;-77
2024/01/30 08:55:59;;;;;;;;;;;16.80;64.50;;;;;;6246570;23;19939;-78
2024/01/30 08:58:25;;;;;;;;;;;16.90;64.50;;;;;;6247761;23;19904;-76
2024/01/30 09:00:51;;;;;;;;;;;17.00;64.80;;;;;;6246501;23;20042;-76
2024/01/30 09:03:17;;;;;;;;;;;16.90;64.10;;;;;;6246511;22;20249;-77
2024/01/30 09:05:42;;;;;;;;;;;17.00;64.70;;;;;;6246495;23;19939;-79
2024/01/30 09:08:08;;;;;;;;;;;16.90;64.40;;;;;;6247100;23;19910;-80
2024/01/30 09:10:34;;;;;;;;;;;16.90;64.30;;;;;;6247097;23;19903;-73
2024/01/30 09:12:59;;;;;;;;;;;16.90;64.50;;;;;;6248691;23;19903;-72
2024/01/30 09:15:25;;;;;;;;;;;17.10;64.70;;;;;;6246323;23;19904;-79
2024/01/30 09:17:50;;;;;;;;;;;16.90;64.60;;;;;;6246418;23;19907;-75
2024/01/30 09:20:16;;;;;;;;;;;16.90;64.40;;;;;;6246907;23;19978;-75
2024/01/30 09:22:41;;;;;;;;;;;16.90;64.50;;;;;;6246125;23;19911;-76
2024/01/30 09:25:07;;;;;;;;;;;16.90;64.50;;;;;;6246053;23;19950;-76
2024/01/30 09:27:32;;;;;;;;;;;16.90;64.40;;;;;;6246786;23;20321;-77
2024/01/30 09:29:58;;;;;;;;;;;16.90;64.00;;;;;;6246322;23;19952;-79
2024/01/30 09:32:23;;;;;;;;;;;16.90;64.60;;;;;;6246108;23;20256;-77
2024/01/30 09:34:49;;;;;;;;;;;16.90;64.40;;;;;;6246129;23;19911;-79
2024/01/30 09:37:16;;;;;;;;;;;16.90;64.00;;;;;;6246317;23;19995;-77
2024/01/30 09:39:42;;;;;;;;;;;16.90;64.50;;;;;;6246322;23;19958;-78
2024/01/30 09:42:26;;;;;;;;;;;16.90;65.40;;;;;;6246129;23;19904;-77
2024/01/30 09:44:53;;;;;;;;;;;16.90;60.40;;;;;;6245802;23;19994;-77
2024/01/30 09:47:18;;;;;;;;;;;16.90;64.50;;;;;;6246045;23;19911;-75
2024/01/30 09:49:44;;;;;;;;;;;16.90;64.40;;;;;;6246353;23;19904;-75
2024/01/30 09:52:10;;;;;;;;;;;16.90;64.40;;;;;;6245842;23;20207;-75
2024/01/30 09:54:37;;;;;;;;;;;16.90;64.60;;;;;;6246993;23;19903;-75
2024/01/30 09:57:04;;;;;;;;;;;16.90;64.50;;;;;;6246517;23;20137;-75
2024/01/30 09:59:29;;;;;;;;;;;16.90;64.20;;;;;;6245943;23;20502;-75
2024/01/30 10:01:56;;;;;;;;;;;16.90;64.30;;;;;;6245596;22;20164;-75
2024/01/30 10:04:22;;;;;;;;;;;16.80;64.50;;;;;;6245880;23;19907;-75
2024/01/30 10:06:47;;;;;;;;;;;16.90;64.70;;;;;;6245848;23;20046;-75
2024/01/30 10:09:13;;;;;;;;;;;16.90;64.50;;;;;;6245783;23;19903;-75
2024/01/30 10:11:39;;;;;;;;;;;16.90;64.60;;;;;;6245705;23;19962;-75
2024/01/30 10:14:04;;;;;;;;;;;16.90;64.50;;;;;;6245645;23;20319;-75
2024/01/30 10:16:30;;;;;;;;;;;17.00;64.60;;;;;;6245766;23;19931;-75
2024/01/30 10:18:55;;;;;;;;;;;16.90;64.50;;;;;;6245707;23;20319;-75
2024/01/30 10:21:21;;;;;;;;;;;16.90;64.60;;;;;;6246423;22;20074;-75
2024/01/30 10:23:46;;;;;;;;;;;16.90;64.70;;;;;;6246507;23;20283;-75
2024/01/30 10:26:12;;;;;;;;;;;17.00;64.80;;;;;;6245498;23;20002;-75
2024/01/30 10:28:38;;;;;;;;;;;17.00;64.60;;;;;;6245501;23;19935;-75
2024/01/30 10:31:03;;;;;;;;;;;17.00;64.70;;;;;;6245397;23;19958;-75
2024/01/30 10:33:29;;;;;;;;;;;16.90;64.20;;;;;;6245511;23;19903;-75
2024/01/30 10:35:59;;;;;;;;;;;16.90;64.70;;;;;;6245530;23;19910;-75
2024/01/30 10:38:27;;;;;;;;;;;16.90;65.10;;;;;;6245307;23;19938;-75
2024/01/30 10:40:55;;;;;;;;;;;16.90;64.50;;;;;;6245171;23;19914;-75
2024/01/30 10:43:22;;;;;;;;;;;16.90;64.80;;;;;;6245405;23;19958;-76
2024/01/30 10:45:49;;;;;;;;;;;16.90;64.70;;;;;;6245189;23;19950;-77
2024/01/30 10:48:16;;;;;;;;;;;16.90;64.80;;;;;;6245660;23;19903;-77
2024/01/30 10:50:42;;;;;;;;;;;17.00;64.90;;;;;;6245533;23;19908;-76
2024/01/30 10:53:09;;;;;;;;;;;16.90;64.60;;;;;;6245929;23;20211;-77
2024/01/30 10:55:34;;;;;;;;;;;17.00;64.70;;;;;;6246204;23;19903;-75
2024/01/30 10:58:00;;;;;;;;;;;16.90;64.60;;;;;;6245276;23;19904;-78
2024/01/30 11:00:26;;;;;;;;;;;16.90;64.50;;;;;;6245341;23;20316;-77
2024/01/30 11:02:52;;;;;;;;;;;16.90;64.00;;;;;;6244958;22;19994;-76
2024/01/30 11:05:27;;;;;;;;;;;16.90;64.10;;;;;;6245234;23;20354;-77
2024/01/30 11:07:53;;;;;;;;;;;16.90;64.30;;;;;;6245270;23;19904;-75
2024/01/30 11:10:19;;;;;;;;;;;16.90;64.40;;;;;;6245250;23;19931;-77
2024/01/30 11:12:46;;;;;;;;;;;17.00;64.40;;;;;;6245123;23;20319;-77
2024/01/30 11:15:15;;;;;;;;;;;16.50;64.40;;;;;;6245684;23;20093;-78
2024/01/30 11:17:41;;;;;;;;;;;16.90;59.90;;;;;;6245085;23;19904;-77
2024/01/30 11:20:09;;;;;;;;;;;16.90;63.80;;;;;;6245567;23;19986;-77
2024/01/30 11:22:35;;;;;;;;;;;17.10;63.10;;;;;;6245083;23;19904;-77
2024/01/30 11:25:03;;;;;;;;;;;16.90;63.80;;;;;;6244856;23;19942;-77
2024/01/30 11:27:30;;;;;;;;;;;16.90;63.30;;;;;;6245156;23;19904;-77
2024/01/30 11:30:00;;;;;;;;;;;16.90;63.50;;;;;;6245539;23;20216;-77
2024/01/30 11:32:27;;;;;;;;;;;17.00;63.70;;;;;;6255727;23;20018;-77
2024/01/30 11:34:52;;;;;;;;;;;16.90;63.50;;;;;;6255136;23;19907;-77
2024/01/30 11:37:20;;;;;;;;;;;16.90;63.40;;;;;;6255026;23;20323;-77
2024/01/30 11:39:45;;;;;;;;;;;16.80;63.60;;;;;;6255089;23;19911;-77
2024/01/30 11:42:11;;;;;;;;;;;16.90;63.60;;;;;;6255124;23;19908;-77
2024/01/30 11:44:37;;;;;;;;;;;17.10;63.70;;;;;;6243160;23;19910;-77
2024/01/30 11:47:03;;;;;;;;;;;16.80;63.40;;;;;;6245464;23;19912;-77
2024/01/30 11:49:29;;;;;;;;;;;16.80;62.90;;;;;;6245444;23;19950;-77
2024/01/30 11:51:54;;;;;;;;;;;16.80;63.30;;;;;;6244540;23;19904;-77
2024/01/30 11:54:20;;;;;;;;;;;16.80;63.50;;;;;;6244905;23;19904;-77
2024/01/30 11:56:45;;;;;;;;;;;16.80;63.30;;;;;;6244802;23;20323;-77
2024/01/30 11:59:11;;;;;;;;;;;16.80;63.20;;;;;;6245450;23;19949;-77
2024/01/30 12:01:36;;;;;;;;;;;16.80;62.70;;;;;;6244653;22;20040;-70
2024/01/30 12:04:02;;;;;;;;;;;16.80;63.10;;;;;;6244706;23;20227;-70
2024/01/30 12:06:28;;;;;;;;;;;16.70;62.90;;;;;;6245203;23;19955;-70
2024/01/30 12:08:56;;;;;;;;;;;16.70;63.00;;;;;;6244747;23;19904;-70
2024/01/30 12:11:22;;;;;;;;;;;16.70;58.90;;;;;;6244591;23;19904;-69
2024/01/30 12:13:47;;;;;;;;;;;16.70;63.00;;;;;;6244718;23;20243;-69
2024/01/30 12:16:16;;;;;;;;;;;16.70;62.90;;;;;;6245086;23;19903;-70
2024/01/30 12:18:41;;;;;;;;;;;16.70;62.60;;;;;;6244675;23;20219;-70
2024/01/30 12:21:08;;;;;;;;;;;16.60;62.70;;;;;;6244732;23;20201;-69
2024/01/30 12:23:34;;;;;;;;;;;16.60;62.70;;;;;;6244687;23;19904;-70
2024/01/30 12:26:01;;;;;;;;;;;16.70;62.80;;;;;;6244646;23;20238;-70
2024/01/30 12:28:26;;;;;;;;;;;16.70;62.90;;;;;;6244632;23;19967;-69
2024/01/30 12:31:01;;;;;;;;;;;16.60;62.80;;;;;;6244720;23;19911;-77
2024/01/30 12:33:28;;;;;;;;;;;16.60;58.50;;;;;;6244651;23;19973;-77
2024/01/30 12:35:53;;;;;;;;;;;16.60;62.80;;;;;;6244613;23;19903;-78
2024/01/30 12:38:19;;;;;;;;;;;16.60;62.40;;;;;;6244502;23;19953;-77
2024/01/30 12:40:45;;;;;;;;;;;16.60;62.80;;;;;;6244933;23;19910;-77
2024/01/30 12:43:11;;;;;;;;;;;16.50;62.20;;;;;;6244527;23;19903;-77
2024/01/30 12:45:36;;;;;;;;;;;16.60;62.00;;;;;;6245672;23;19912;-70
2024/01/30 12:48:02;;;;;;;;;;;16.60;62.30;;;;;;6244475;23;19931;-70
2024/01/30 12:50:27;;;;;;;;;;;16.60;62.00;;;;;;6245165;23;19911;-70
2024/01/30 12:52:53;;;;;;;;;;;16.60;63.00;;;;;;6244519;23;20324;-70
2024/01/30 12:55:18;;;;;;;;;;;16.50;62.20;;;;;;6244491;23;19950;-69
2024/01/30 12:57:44;;;;;;;;;;;16.50;62.30;;;;;;6254803;23;19939;-69
2024/01/30 13:00:10;;;;;;;;;;;16.50;62.30;;;;;;6244584;23;20053;-70
2024/01/30 13:02:36;;;;;;;;;;;16.60;62.00;;;;;;6242850;23;20347;-70
2024/01/30 13:05:05;;;;;;;;;;;16.50;62.30;;;;;;6246304;23;19907;-70
2024/01/30 13:07:31;;;;;;;;;;;16.50;62.10;;;;;;6246259;23;20350;-70
2024/01/30 13:10:02;;;;;;;;;;;16.50;62.40;;;;;;6246253;23;19911;-70
2024/01/30 13:12:28;;;;;;;;;;;16.50;62.40;;;;;;6256819;23;19958;-70
2024/01/30 13:14:53;;;;;;;;;;;16.50;62.50;;;;;;6247179;23;19903;-70
2024/01/30 13:17:19;;;;;;;;;;;16.40;62.60;;;;;;6246217;23;20402;-70
2024/01/30 13:19:44;;;;;;;;;;;16.40;62.30;;;;;;6246202;23;19903;-69
2024/01/30 13:22:10;;;;;;;;;;;16.40;62.40;;;;;;6246268;23;19955;-69
2024/01/30 13:24:35;;;;;;;;;;;16.40;62.30;;;;;;6246132;23;19908;-69
2024/01/30 13:27:01;;;;;;;;;;;16.40;62.50;;;;;;6246179;23;19927;-69
2024/01/30 13:29:26;;;;;;;;;;;16.40;62.40;;;;;;6246168;23;19903;-69
2024/01/30 13:31:52;;;;;;;;;;;16.40;62.30;;;;;;6246094;23;19904;-69
2024/01/30 13:34:17;;;;;;;;;;;16.40;62.20;;;;;;6246137;23;19904;-70
2024/01/30 13:36:43;;;;;;;;;;;16.40;62.20;;;;;;6246000;23;19911;-69
2024/01/30 13:39:10;;;;;;;;;;;16.40;62.70;;;;;;6246117;23;19903;-70
2024/01/30 13:41:37;;;;;;;;;;;16.30;62.50;;;;;;6245963;23;20299;-70
2024/01/30 13:44:03;;;;;;;;;;;16.30;62.50;;;;;;6247228;23;19951;-70
2024/01/30 13:46:29;;;;;;;;;;;16.40;62.10;;;;;;6246487;23;19912;-70
2024/01/30 13:48:54;;;;;;;;;;;16.40;62.60;;;;;;6246039;23;19983;-70
2024/01/30 13:51:20;;;;;;;;;;;16.30;62.30;;;;;;6246023;23;20347;-70
2024/01/30 13:53:45;;;;;;;;;;;16.30;62.20;;;;;;6245899;23;19910;-70
2024/01/30 13:56:11;;;;;;;;;;;16.30;62.10;;;;;;6246036;23;19974;-70
2024/01/30 13:58:36;;;;;;;;;;;16.30;62.40;;;;;;6245759;23;19911;-70
2024/01/30 14:01:02;;;;;;;;;;;16.30;62.10;;;;;;6245820;23;19949;-70
2024/01/30 14:03:27;;;;;;;;;;;16.30;61.90;;;;;;6245996;22;19998;-70
2024/01/30 14:05:53;;;;;;;;;;;16.40;62.30;;;;;;6245590;23;19919;-70
2024/01/30 14:08:21;;;;;;;;;;;16.30;62.20;;;;;;6245574;23;19911;-70